TPOK1: Kansas River, State-Line, KS

                                SHEF ID:       TPOK1     MARAIS DES CYGNES R NR KS-MO ST
STATION TYPE:

STAGE STAGE(2) RIV-FLOW BAT-LOAD
ft ft cfs volt
Ccp-Rev Ccp-Rev Ccp-Rev Ccp-Rev
(America/Chicago)
06/16 00:00 19.44 19.42 12356 12.47
06/16 01:00 19.28 19.26 12174 12.45
06/16 02:00 19.11 19.09 11981 12.43
06/16 03:00 18.91 18.87 11756 12.43
06/16 04:00 18.68 18.67 11500 12.40
06/16 05:00 18.44 18.43 11234 12.36
06/16 06:00 18.18 18.18 10949 12.34
06/16 07:00 17.92 17.87 10666 12.37
06/16 08:00 17.64 17.63 10365 12.35
06/16 09:00 17.36 17.34 10067 12.45
06/16 10:00 17.07 17.07 9761 12.40
06/16 11:00 16.79 16.78 9469 13.12
06/16 12:00 16.49 16.45 9160 13.17
06/16 13:00 16.17 16.18 8834 13.30
06/16 14:00 15.90 15.90 8563 13.39
06/16 15:00 15.60 15.65 8265 13.21
06/16 16:00 15.30 15.30 7971 13.12
06/16 17:00 15.00 15.00 7681 13.01
06/16 18:00 14.71 14.68 7404 12.90
06/16 19:00 14.41 14.37 7121 12.71
06/16 20:00 14.11 14.11 6843 12.65
06/16 21:00 13.81 13.81 6568 12.62
06/16 22:00 13.52 13.53 6307 12.61
06/16 23:00 13.24 13.27 6058 12.55
Data processed at Mon 22Jun2026 02:52 GMT

NOTICE: If you are parsing this page

Please convert to using our Data API. Starting early 2026 we will be migrating to: https://water.usace.army.mil with modern pages rendered in JavaScript. When this migration completes you will no longer be able to scrape this page! CWMSDataAPI (CDA)

Timeseries IDs (TSIDs)

TSIDs used from left to right in the data table
MKSL.Stage.Inst.1Hour.0.Ccp-Rev
MKSL.Stage-Alt.Inst.1Hour.0.Ccp-Rev
MKSL.Flow.Inst.1Hour.0.Ccp-Rev
MKSL.Volt-Battery Load.Inst.1Hour.0.Ccp-Rev

                            

All information presented herein is the property of the government of the United States of America and may be revised or deleted at any time without prior notice. Dissemination of this information without the expressed written consent of the Public Affairs Office, Tulsa District U.S. Army Corps of Engineers is strictly prohibited. These data are gathered electronically and, as presented, have NOT undergone any form of quality control. These data are NOT guaranteed to be valid or correct.